createdAt,value
2022-11-07T00:00:03.121Z,983.31
2022-11-07T00:01:03.106Z,983.35
2022-11-07T00:02:03.150Z,983.28
2022-11-07T00:03:03.125Z,983.43
2022-11-07T00:04:03.066Z,983.39
2022-11-07T00:05:03.066Z,983.36
2022-11-07T00:06:03.037Z,983.41
2022-11-07T00:07:03.045Z,983.39
2022-11-07T00:08:03.016Z,983.35
2022-11-07T00:09:03.009Z,983.39
2022-11-07T00:10:02.975Z,983.36
2022-11-07T00:11:03.039Z,983.31
2022-11-07T00:12:02.989Z,983.37
2022-11-07T00:13:02.972Z,983.41
2022-11-07T00:14:02.980Z,983.33
2022-11-07T00:15:02.971Z,983.42
2022-11-07T00:16:02.941Z,983.46
2022-11-07T00:17:02.939Z,983.48
2022-11-07T00:18:02.941Z,983.58
2022-11-07T00:19:02.929Z,983.57
2022-11-07T00:20:02.900Z,983.57
2022-11-07T00:21:02.882Z,983.59
2022-11-07T00:22:02.905Z,983.60
2022-11-07T00:23:02.873Z,983.60
2022-11-07T00:24:02.864Z,983.53
2022-11-07T00:25:02.863Z,983.65
2022-11-07T00:26:02.820Z,983.67
2022-11-07T00:27:02.938Z,983.66
2022-11-07T00:28:02.823Z,983.71
2022-11-07T00:29:02.825Z,983.71
2022-11-07T00:30:02.805Z,983.68
2022-11-07T00:31:02.774Z,983.64
2022-11-07T00:32:02.802Z,983.75
2022-11-07T00:33:02.777Z,983.74
2022-11-07T00:34:02.758Z,983.73
2022-11-07T00:35:02.739Z,983.74
2022-11-07T00:36:02.733Z,983.73
2022-11-07T00:37:02.724Z,983.72
2022-11-07T00:38:02.725Z,983.75
2022-11-07T00:39:02.683Z,983.75
2022-11-07T00:40:02.705Z,983.72
2022-11-07T00:41:02.675Z,983.70
2022-11-07T00:42:02.679Z,983.78
2022-11-07T00:43:02.664Z,983.77
2022-11-07T00:44:02.655Z,983.78
2022-11-07T00:45:02.624Z,983.79
2022-11-07T00:46:02.622Z,983.85
2022-11-07T00:47:02.607Z,983.85
2022-11-07T00:48:02.607Z,983.89
2022-11-07T00:49:02.599Z,983.81
2022-11-07T00:50:02.574Z,983.88
2022-11-07T00:51:02.586Z,983.86
2022-11-07T00:52:02.555Z,983.76
2022-11-07T00:53:02.548Z,983.78
2022-11-07T00:54:02.564Z,983.89
2022-11-07T00:55:02.528Z,983.94
2022-11-07T00:56:02.507Z,983.91
2022-11-07T00:57:02.487Z,983.95
2022-11-07T00:58:02.481Z,983.94
2022-11-07T00:59:02.502Z,983.95
2022-11-07T01:00:02.479Z,983.94
2022-11-07T01:01:02.459Z,983.95
2022-11-07T01:02:02.586Z,983.91
2022-11-07T01:03:02.447Z,983.91
2022-11-07T01:04:02.415Z,983.85
2022-11-07T01:05:02.409Z,983.85
2022-11-07T01:06:02.494Z,983.90
2022-11-07T01:07:02.402Z,983.79
2022-11-07T01:08:02.407Z,983.87
2022-11-07T01:09:02.388Z,983.87
2022-11-07T01:10:02.368Z,983.88
2022-11-07T01:11:02.349Z,983.89
2022-11-07T01:12:02.341Z,983.87
2022-11-07T01:13:02.339Z,983.81
2022-11-07T01:14:02.334Z,983.85
2022-11-07T01:15:02.321Z,983.81
2022-11-07T01:16:02.304Z,983.88
2022-11-07T01:17:02.320Z,983.74
2022-11-07T01:18:02.285Z,983.80
2022-11-07T01:19:02.269Z,983.88
2022-11-07T01:20:02.289Z,983.80
2022-11-07T01:21:02.262Z,983.83
2022-11-07T01:22:02.232Z,983.79
2022-11-07T01:23:02.233Z,983.80
2022-11-07T01:24:02.212Z,983.80
2022-11-07T01:25:02.201Z,983.85
2022-11-07T01:26:02.184Z,983.92
2022-11-07T01:27:02.213Z,983.91
2022-11-07T01:28:02.167Z,983.84
2022-11-07T01:29:02.162Z,983.88
2022-11-07T01:30:02.154Z,983.87
2022-11-07T01:31:02.151Z,983.81
2022-11-07T01:32:02.133Z,983.80
2022-11-07T01:33:02.133Z,983.82
2022-11-07T01:34:02.116Z,983.84
2022-11-07T01:35:02.095Z,983.83
2022-11-07T01:36:05.878Z,983.91
2022-11-07T01:37:02.107Z,983.93
2022-11-07T01:38:02.056Z,983.86
2022-11-07T01:39:02.045Z,983.92
2022-11-07T01:40:02.032Z,983.89
2022-11-07T01:41:02.028Z,983.87
2022-11-07T01:42:02.007Z,983.88
2022-11-07T01:43:02.026Z,983.87
2022-11-07T01:44:02.017Z,983.85
2022-11-07T01:45:01.992Z,983.88
2022-11-07T01:46:01.993Z,983.85
2022-11-07T01:47:01.978Z,983.84
2022-11-07T01:48:01.957Z,983.85
2022-11-07T01:49:01.965Z,983.83
2022-11-07T01:50:01.919Z,983.83
2022-11-07T01:51:01.916Z,983.75
2022-11-07T01:52:01.909Z,983.76
2022-11-07T01:53:01.918Z,983.83
2022-11-07T01:54:01.906Z,983.77
2022-11-07T01:55:01.877Z,983.74
2022-11-07T01:56:01.883Z,983.75
2022-11-07T01:57:01.896Z,983.75
2022-11-07T01:58:01.867Z,983.80
2022-11-07T01:59:01.830Z,983.87
2022-11-07T02:00:01.821Z,983.83
2022-11-07T02:01:01.822Z,983.82
2022-11-07T02:02:01.919Z,983.87
2022-11-07T02:03:01.932Z,983.90
2022-11-07T02:04:01.776Z,983.94
2022-11-07T02:05:01.772Z,983.94
2022-11-07T02:06:01.756Z,983.94
2022-11-07T02:07:01.741Z,983.84
2022-11-07T02:08:01.770Z,983.89
2022-11-07T02:09:01.737Z,983.88
2022-11-07T02:10:01.712Z,983.91
2022-11-07T02:11:01.730Z,983.86
2022-11-07T02:12:01.699Z,983.84
2022-11-07T02:13:01.711Z,983.93
2022-11-07T02:14:01.669Z,983.90
2022-11-07T02:15:01.685Z,983.86
2022-11-07T02:16:01.663Z,983.90
2022-11-07T02:17:01.649Z,983.86
2022-11-07T02:18:01.631Z,983.88
2022-11-07T02:19:01.635Z,983.86
2022-11-07T02:20:01.589Z,983.90
2022-11-07T02:21:01.611Z,983.87
2022-11-07T02:22:01.593Z,983.82
2022-11-07T02:23:01.592Z,983.84
2022-11-07T02:24:01.583Z,983.80
2022-11-07T02:25:01.557Z,983.88
2022-11-07T02:26:01.545Z,983.81
2022-11-07T02:27:01.546Z,983.83
2022-11-07T02:28:01.537Z,983.84
2022-11-07T02:29:01.526Z,983.82
2022-11-07T02:30:01.515Z,983.84
2022-11-07T02:31:01.483Z,983.79
2022-11-07T02:32:01.493Z,983.73
2022-11-07T02:33:01.470Z,983.83
2022-11-07T02:34:01.464Z,983.83
2022-11-07T02:35:01.440Z,983.72
2022-11-07T02:36:01.452Z,983.84
2022-11-07T02:37:01.465Z,983.85
2022-11-07T02:38:01.404Z,983.80
2022-11-07T02:39:01.395Z,983.80
2022-11-07T02:40:01.409Z,983.79
2022-11-07T02:41:01.376Z,983.81
2022-11-07T02:42:01.385Z,983.81
2022-11-07T02:43:01.374Z,983.81
2022-11-07T02:44:01.345Z,983.87
2022-11-07T02:45:01.363Z,983.78
2022-11-07T02:46:01.335Z,983.81
2022-11-07T02:47:01.323Z,983.76
2022-11-07T02:48:01.316Z,983.74
2022-11-07T02:49:01.307Z,983.73
2022-11-07T02:50:01.288Z,983.76
2022-11-07T02:51:01.277Z,983.72
2022-11-07T02:52:01.288Z,983.81
2022-11-07T02:53:01.254Z,983.80
2022-11-07T02:54:01.245Z,983.74
2022-11-07T02:55:01.221Z,983.70
2022-11-07T02:56:01.202Z,983.78
2022-11-07T02:57:01.189Z,983.73
2022-11-07T02:58:01.181Z,983.72
2022-11-07T02:59:01.153Z,983.75
2022-11-07T03:00:01.151Z,983.78
2022-11-07T03:01:01.143Z,983.76
2022-11-07T03:02:01.176Z,983.78
2022-11-07T03:03:01.121Z,983.72
2022-11-07T03:04:01.113Z,983.78
2022-11-07T03:05:01.095Z,983.68
2022-11-07T03:06:01.092Z,983.72
2022-11-07T03:07:01.085Z,983.75
2022-11-07T03:08:01.057Z,983.70
2022-11-07T03:09:01.051Z,983.73
2022-11-07T03:10:01.035Z,983.72
2022-11-07T03:11:01.043Z,983.70
2022-11-07T03:12:01.013Z,983.59
2022-11-07T03:13:01.016Z,983.68
2022-11-07T03:14:01.005Z,983.72
2022-11-07T03:15:01.078Z,983.65
2022-11-07T03:16:01.045Z,983.69
2022-11-07T03:17:00.965Z,983.72
2022-11-07T03:18:00.946Z,983.69
2022-11-07T03:19:00.946Z,983.73
2022-11-07T03:20:00.935Z,983.73
2022-11-07T03:21:00.945Z,983.65
2022-11-07T03:22:00.907Z,983.60
2022-11-07T03:23:00.896Z,983.65
2022-11-07T03:24:00.896Z,983.66
2022-11-07T03:25:00.885Z,983.69
2022-11-07T03:26:00.874Z,983.65
2022-11-07T03:27:00.868Z,983.64
2022-11-07T03:28:00.850Z,983.71
2022-11-07T03:29:00.845Z,983.71
2022-11-07T03:30:00.828Z,983.69
2022-11-07T03:31:00.816Z,983.72
2022-11-07T03:32:00.807Z,983.74
2022-11-07T03:33:00.817Z,983.74
2022-11-07T03:34:00.777Z,983.74
2022-11-07T03:35:00.778Z,983.78
2022-11-07T03:36:00.755Z,983.76
2022-11-07T03:37:00.759Z,983.90
2022-11-07T03:38:00.759Z,983.80
2022-11-07T03:39:00.739Z,983.84
2022-11-07T03:40:00.738Z,983.83
2022-11-07T03:41:00.707Z,983.83
2022-11-07T03:42:00.709Z,983.85
2022-11-07T03:43:00.682Z,983.83
2022-11-07T03:44:00.679Z,983.86
2022-11-07T03:45:00.678Z,983.87
2022-11-07T03:46:00.663Z,983.86
2022-11-07T03:47:00.639Z,983.87
2022-11-07T03:48:00.620Z,983.87
2022-11-07T03:49:00.630Z,983.95
2022-11-07T03:50:00.619Z,983.92
2022-11-07T03:51:00.610Z,983.96
2022-11-07T03:52:00.590Z,983.90
2022-11-07T03:53:00.581Z,983.92
2022-11-07T03:54:00.569Z,983.95
2022-11-07T03:55:00.569Z,983.93
2022-11-07T03:56:00.574Z,983.94
2022-11-07T03:57:00.540Z,984.02
2022-11-07T03:58:00.520Z,984.04
2022-11-07T03:59:00.521Z,984.00
2022-11-07T04:00:00.492Z,984.06
2022-11-07T04:01:00.509Z,984.02
2022-11-07T04:02:00.555Z,984.10
2022-11-07T04:03:00.638Z,984.06
2022-11-07T04:04:00.462Z,984.08
2022-11-07T04:05:00.454Z,984.11
2022-11-07T04:06:00.453Z,984.13
2022-11-07T04:07:00.434Z,984.07
2022-11-07T04:08:00.403Z,984.17
2022-11-07T04:09:00.413Z,984.14
2022-11-07T04:10:00.390Z,984.14
2022-11-07T04:11:00.381Z,984.14
2022-11-07T04:12:00.393Z,984.16
2022-11-07T04:13:00.363Z,984.22
2022-11-07T04:14:00.344Z,984.23
2022-11-07T04:15:00.339Z,984.25
2022-11-07T04:16:00.355Z,984.27
2022-11-07T04:17:00.326Z,984.23
2022-11-07T04:18:00.319Z,984.22
2022-11-07T04:19:00.313Z,984.22
2022-11-07T04:20:00.294Z,984.26
2022-11-07T04:21:00.285Z,984.27
2022-11-07T04:22:00.255Z,984.26
2022-11-07T04:23:00.263Z,984.22
2022-11-07T04:24:00.256Z,984.25
2022-11-07T04:25:00.234Z,984.34
2022-11-07T04:26:00.226Z,984.33
2022-11-07T04:27:00.218Z,984.38
2022-11-07T04:28:00.194Z,984.30
2022-11-07T04:29:00.236Z,984.29
2022-11-07T04:30:00.207Z,984.31
2022-11-07T04:31:00.178Z,984.29
2022-11-07T04:32:00.150Z,984.28
2022-11-07T04:33:00.159Z,984.37
2022-11-07T04:34:00.158Z,984.31
2022-11-07T04:35:00.140Z,984.25
2022-11-07T04:36:00.126Z,984.31
2022-11-07T04:37:00.105Z,984.32
2022-11-07T04:38:00.101Z,984.28
2022-11-07T04:39:00.090Z,984.29
2022-11-07T04:40:00.077Z,984.25
2022-11-07T04:41:00.079Z,984.27
2022-11-07T04:42:00.040Z,984.30
2022-11-07T04:43:00.056Z,984.33
2022-11-07T04:44:00.060Z,984.36
2022-11-07T04:45:00.039Z,984.33
2022-11-07T04:46:00.000Z,984.31
2022-11-07T04:46:59.998Z,984.34
2022-11-07T04:47:59.980Z,984.33
2022-11-07T04:49:00.010Z,984.32
2022-11-07T04:49:59.958Z,984.32
2022-11-07T04:50:59.951Z,984.32
2022-11-07T04:51:59.940Z,984.33
2022-11-07T04:52:59.932Z,984.35
2022-11-07T04:53:59.928Z,984.39
2022-11-07T04:54:59.918Z,984.43
2022-11-07T04:55:59.911Z,984.42
2022-11-07T04:56:59.890Z,984.42
2022-11-07T04:57:59.891Z,984.40
2022-11-07T04:58:59.889Z,984.39
2022-11-07T04:59:59.852Z,984.34
2022-11-07T05:00:59.866Z,984.38
2022-11-07T05:01:59.988Z,984.41
2022-11-07T05:02:59.913Z,984.36
2022-11-07T05:03:59.802Z,984.36
2022-11-07T05:04:59.808Z,984.38
2022-11-07T05:05:59.801Z,984.36
2022-11-07T05:06:59.882Z,984.40
2022-11-07T05:07:59.763Z,984.40
2022-11-07T05:08:59.775Z,984.36
2022-11-07T05:09:59.741Z,984.38
2022-11-07T05:10:59.762Z,984.51
2022-11-07T05:11:59.732Z,984.38
2022-11-07T05:12:59.735Z,984.43
2022-11-07T05:13:59.697Z,984.41
2022-11-07T05:14:59.703Z,984.36
2022-11-07T05:15:59.704Z,984.39
2022-11-07T05:16:59.674Z,984.39
2022-11-07T05:17:59.667Z,984.41
2022-11-07T05:18:59.664Z,984.44
2022-11-07T05:19:59.636Z,984.43
2022-11-07T05:20:59.647Z,984.47
2022-11-07T05:21:59.635Z,984.53
2022-11-07T05:22:59.624Z,984.52
2022-11-07T05:23:59.627Z,984.43
2022-11-07T05:24:59.586Z,984.46
2022-11-07T05:25:59.585Z,984.46
2022-11-07T05:26:59.566Z,984.40
2022-11-07T05:27:59.566Z,984.48
2022-11-07T05:28:59.566Z,984.43
2022-11-07T05:29:59.527Z,984.46
2022-11-07T05:30:59.525Z,984.50
2022-11-07T05:31:59.516Z,984.54
2022-11-07T05:32:59.508Z,984.52
2022-11-07T05:33:59.487Z,984.50
2022-11-07T05:34:59.478Z,984.48
2022-11-07T05:35:59.507Z,984.50
2022-11-07T05:36:59.480Z,984.49
2022-11-07T05:37:59.450Z,984.50
2022-11-07T05:38:59.469Z,984.46
2022-11-07T05:39:59.439Z,984.45
2022-11-07T05:40:59.422Z,984.42
2022-11-07T05:41:59.439Z,984.48
2022-11-07T05:42:59.403Z,984.48
2022-11-07T05:43:59.397Z,984.47
2022-11-07T05:44:59.398Z,984.49
2022-11-07T05:45:59.370Z,984.49
2022-11-07T05:46:59.361Z,984.49
2022-11-07T05:47:59.331Z,984.54
2022-11-07T05:49:01.078Z,984.56
2022-11-07T05:49:59.330Z,984.52
2022-11-07T05:50:59.320Z,984.47
2022-11-07T05:51:59.290Z,984.52
2022-11-07T05:52:59.418Z,984.51
2022-11-07T05:53:59.270Z,984.52
2022-11-07T05:54:59.271Z,984.50
2022-11-07T05:55:59.267Z,984.51
2022-11-07T05:56:59.262Z,984.52
2022-11-07T05:58:05.715Z,984.52
2022-11-07T05:59:00.242Z,984.56
2022-11-07T05:59:59.212Z,984.54
2022-11-07T06:00:59.223Z,984.56
2022-11-07T06:01:59.272Z,984.55
2022-11-07T06:02:59.314Z,984.56
2022-11-07T06:03:59.166Z,984.62
2022-11-07T06:04:59.154Z,984.57
2022-11-07T06:05:59.872Z,984.62
2022-11-07T06:06:59.155Z,984.57
2022-11-07T06:08:00.124Z,984.59
2022-11-07T06:08:59.131Z,984.61
2022-11-07T06:09:59.828Z,984.58
2022-11-07T06:10:59.153Z,984.58
2022-11-07T06:11:59.784Z,984.63
2022-11-07T06:12:59.115Z,984.65
2022-11-07T06:13:59.787Z,984.60
2022-11-07T06:14:59.075Z,984.56
2022-11-07T06:15:59.766Z,984.56
2022-11-07T06:16:59.104Z,984.63
2022-11-07T06:17:59.047Z,984.57
2022-11-07T06:18:59.085Z,984.58
2022-11-07T06:19:59.011Z,984.50
2022-11-07T06:20:58.996Z,984.51
2022-11-07T06:21:59.726Z,984.53
2022-11-07T06:22:58.973Z,984.51
2022-11-07T06:23:58.981Z,984.57
2022-11-07T06:24:58.944Z,984.68
2022-11-07T06:25:58.926Z,984.74
2022-11-07T06:26:58.955Z,984.76
2022-11-07T06:27:58.916Z,984.61
2022-11-07T06:28:58.915Z,984.62
2022-11-07T06:29:58.876Z,984.59
2022-11-07T06:30:58.888Z,984.60
2022-11-07T06:31:58.858Z,984.58
2022-11-07T06:32:58.897Z,984.62
2022-11-07T06:33:58.857Z,984.77
2022-11-07T06:34:58.845Z,984.66
2022-11-07T06:35:58.839Z,984.71
2022-11-07T06:37:03.102Z,984.74
2022-11-07T06:37:58.807Z,984.68
2022-11-07T06:38:58.806Z,984.67
2022-11-07T06:39:58.779Z,984.68
2022-11-07T06:40:58.769Z,984.68
2022-11-07T06:41:58.766Z,984.74
2022-11-07T06:42:58.769Z,984.75
2022-11-07T06:43:58.758Z,984.70
2022-11-07T06:44:58.721Z,984.76
2022-11-07T06:45:58.740Z,984.80
2022-11-07T06:46:58.699Z,984.75
2022-11-07T06:47:58.700Z,984.78
2022-11-07T06:48:58.689Z,984.75
2022-11-07T06:49:58.682Z,984.76
2022-11-07T06:50:58.670Z,984.74
2022-11-07T06:51:58.650Z,984.77
2022-11-07T06:52:58.642Z,984.78
2022-11-07T06:53:58.622Z,984.81
2022-11-07T06:54:58.619Z,984.77
2022-11-07T06:55:58.631Z,984.80
2022-11-07T06:56:58.621Z,984.76
2022-11-07T06:57:58.593Z,984.82
2022-11-07T06:58:58.622Z,984.82
2022-11-07T06:59:58.559Z,984.84
2022-11-07T07:00:58.668Z,984.80
2022-11-07T07:01:58.642Z,984.79
2022-11-07T07:03:00.228Z,984.82
2022-11-07T07:03:58.519Z,984.90
2022-11-07T07:04:59.880Z,984.83
2022-11-07T07:05:58.513Z,984.87
2022-11-07T07:06:59.231Z,984.89
2022-11-07T07:07:58.493Z,984.91
2022-11-07T07:08:59.171Z,984.87
2022-11-07T07:09:58.464Z,984.99
2022-11-07T07:10:58.764Z,985.02
2022-11-07T07:11:58.484Z,984.98
2022-11-07T07:12:58.828Z,985.08
2022-11-07T07:14:02.211Z,985.01
2022-11-07T07:14:59.514Z,985.01
2022-11-07T07:15:58.427Z,985.03
2022-11-07T07:16:59.106Z,985.03
2022-11-07T07:17:58.416Z,985.04
2022-11-07T07:18:58.464Z,985.05
2022-11-07T07:19:58.354Z,985.07
2022-11-07T07:20:59.047Z,985.07
2022-11-07T07:21:58.337Z,985.10
2022-11-07T07:23:04.379Z,985.08
2022-11-07T07:23:59.314Z,985.08
2022-11-07T07:24:58.286Z,985.16
2022-11-07T07:25:58.306Z,985.16
2022-11-07T07:26:58.266Z,985.17
2022-11-07T07:27:58.287Z,985.15
2022-11-07T07:28:58.257Z,985.16
2022-11-07T07:29:58.248Z,985.17
2022-11-07T07:30:58.228Z,985.17
2022-11-07T07:31:58.225Z,985.16
2022-11-07T07:32:58.228Z,985.20
2022-11-07T07:33:58.209Z,985.12
2022-11-07T07:34:58.189Z,985.11
2022-11-07T07:35:58.190Z,985.16
2022-11-07T07:36:58.167Z,985.15
2022-11-07T07:37:58.202Z,985.14
2022-11-07T07:38:58.174Z,985.14
2022-11-07T07:39:58.142Z,985.16
2022-11-07T07:40:58.138Z,985.14
2022-11-07T07:41:58.130Z,985.12
2022-11-07T07:42:58.100Z,985.11
2022-11-07T07:43:58.130Z,985.14
2022-11-07T07:44:58.130Z,985.17
2022-11-07T07:45:58.122Z,985.11
2022-11-07T07:46:58.073Z,985.13
2022-11-07T07:47:58.077Z,985.13
2022-11-07T07:48:58.072Z,985.18
2022-11-07T07:49:58.070Z,985.21
2022-11-07T07:50:58.027Z,985.15
2022-11-07T07:51:58.068Z,985.21
2022-11-07T07:52:58.038Z,985.23
2022-11-07T07:53:58.004Z,985.24
2022-11-07T07:54:57.971Z,985.22
2022-11-07T07:55:58.003Z,985.26
2022-11-07T07:56:57.970Z,985.19
2022-11-07T07:57:57.941Z,985.21
2022-11-07T07:58:57.944Z,985.17
2022-11-07T07:59:57.961Z,985.20
2022-11-07T08:00:58.000Z,985.21
2022-11-07T08:01:58.149Z,985.17
2022-11-07T08:02:57.893Z,985.17
2022-11-07T08:04:01.933Z,985.14
2022-11-07T08:04:57.863Z,985.14
2022-11-07T08:05:57.865Z,985.23
2022-11-07T08:06:57.839Z,985.19
2022-11-07T08:07:57.845Z,985.15
2022-11-07T08:08:57.842Z,985.13
2022-11-07T08:10:01.985Z,985.16
2022-11-07T08:10:57.848Z,985.20
2022-11-07T08:11:57.812Z,985.19
2022-11-07T08:12:57.806Z,985.16
2022-11-07T08:14:01.345Z,985.08
2022-11-07T08:14:57.746Z,985.19
2022-11-07T08:15:57.754Z,985.20
2022-11-07T08:16:57.756Z,985.09
2022-11-07T08:17:57.738Z,985.18
2022-11-07T08:18:57.725Z,985.22
2022-11-07T08:19:57.718Z,985.23
2022-11-07T08:20:57.766Z,985.22
2022-11-07T08:21:57.720Z,985.28
2022-11-07T08:22:57.668Z,985.25
2022-11-07T08:23:57.667Z,985.23
2022-11-07T08:24:57.656Z,985.24
2022-11-07T08:25:57.668Z,985.23
2022-11-07T08:26:57.621Z,985.28
2022-11-07T08:27:57.660Z,985.27
2022-11-07T08:28:57.617Z,985.31
2022-11-07T08:29:57.608Z,985.29
2022-11-07T08:30:57.599Z,985.27
2022-11-07T08:31:58.580Z,985.23
2022-11-07T08:32:57.560Z,985.26
2022-11-07T08:33:58.707Z,985.23
2022-11-07T08:34:57.579Z,985.26
2022-11-07T08:35:57.723Z,985.24
2022-11-07T08:36:57.518Z,985.19
2022-11-07T08:37:58.532Z,985.22
2022-11-07T08:38:57.526Z,985.23
2022-11-07T08:39:57.560Z,985.25
2022-11-07T08:40:57.499Z,985.28
2022-11-07T08:41:58.201Z,985.26
2022-11-07T08:42:57.481Z,985.33
2022-11-07T08:43:57.844Z,985.30
2022-11-07T08:44:57.447Z,985.31
2022-11-07T08:45:57.509Z,985.30
2022-11-07T08:46:57.432Z,985.31
2022-11-07T08:47:58.140Z,985.36
2022-11-07T08:48:57.423Z,985.30
2022-11-07T08:49:57.782Z,985.33
2022-11-07T08:50:57.360Z,985.34
2022-11-07T08:51:57.392Z,985.25
2022-11-07T08:53:02.487Z,985.30
2022-11-07T08:53:58.333Z,985.31
2022-11-07T08:54:57.323Z,985.29
2022-11-07T08:55:57.343Z,985.32
2022-11-07T08:56:57.301Z,985.27
2022-11-07T08:57:57.295Z,985.29
2022-11-07T08:58:57.284Z,985.30
2022-11-07T08:59:57.267Z,985.21
2022-11-07T09:00:57.293Z,985.24
2022-11-07T09:02:39.076Z,985.28
2022-11-07T09:03:30.749Z,985.28
2022-11-07T09:03:58.800Z,985.17
2022-11-07T09:04:57.214Z,985.25
2022-11-07T09:05:57.926Z,985.24
2022-11-07T09:06:57.236Z,985.16
2022-11-07T09:07:57.194Z,985.24
2022-11-07T09:08:57.188Z,985.23
2022-11-07T09:09:57.163Z,985.26
2022-11-07T09:10:57.179Z,985.21
2022-11-07T09:11:57.136Z,985.23
2022-11-07T09:12:57.135Z,985.24
2022-11-07T09:13:57.145Z,985.28
2022-11-07T09:14:57.109Z,985.22
2022-11-07T09:15:57.089Z,985.31
2022-11-07T09:16:57.087Z,985.31
2022-11-07T09:17:57.087Z,985.37
2022-11-07T09:18:57.068Z,985.31
2022-11-07T09:19:57.067Z,985.41
2022-11-07T09:20:57.066Z,985.41
2022-11-07T09:21:57.057Z,985.37
2022-11-07T09:22:57.057Z,985.41
2022-11-07T09:23:57.066Z,985.38
2022-11-07T09:24:57.005Z,985.42
2022-11-07T09:25:56.997Z,985.41
2022-11-07T09:26:56.989Z,985.45
2022-11-07T09:27:56.960Z,985.37
2022-11-07T09:29:00.926Z,985.34
2022-11-07T09:29:56.953Z,985.40
2022-11-07T09:30:56.939Z,985.34
2022-11-07T09:31:56.931Z,985.39
2022-11-07T09:32:56.915Z,985.49
2022-11-07T09:33:56.920Z,985.42
2022-11-07T09:35:02.000Z,985.45
2022-11-07T09:35:57.880Z,985.50
2022-11-07T09:36:56.878Z,985.48
2022-11-07T09:37:56.872Z,985.55
2022-11-07T09:38:56.871Z,985.55
2022-11-07T09:39:56.832Z,985.56
2022-11-07T09:40:56.822Z,985.59
2022-11-07T09:41:56.821Z,985.58
2022-11-07T09:42:56.816Z,985.58
2022-11-07T09:43:56.810Z,985.62
2022-11-07T09:44:56.774Z,985.58
2022-11-07T09:45:56.792Z,985.61
2022-11-07T09:46:57.013Z,985.56
2022-11-07T09:47:56.763Z,985.55
2022-11-07T09:48:57.744Z,985.61
2022-11-07T09:49:56.756Z,985.51
2022-11-07T09:50:56.899Z,985.55
2022-11-07T09:51:56.729Z,985.49
2022-11-07T09:52:57.445Z,985.49
2022-11-07T09:53:56.738Z,985.49
2022-11-07T09:54:57.378Z,985.49
2022-11-07T09:55:56.780Z,985.50
2022-11-07T09:56:57.385Z,985.46
2022-11-07T09:57:56.655Z,985.50
2022-11-07T09:58:57.127Z,985.46
2022-11-07T09:59:56.628Z,985.51
2022-11-07T10:00:57.081Z,985.42
2022-11-07T10:01:56.701Z,985.53
2022-11-07T10:02:56.597Z,985.50
2022-11-07T10:04:57.686Z,985.47
2022-11-07T10:05:56.580Z,985.43
2022-11-07T10:06:56.578Z,985.49
2022-11-07T10:07:56.527Z,985.50
2022-11-07T10:08:56.508Z,985.48
2022-11-07T10:09:56.547Z,985.44
2022-11-07T10:10:56.510Z,985.49
2022-11-07T10:11:56.499Z,985.44
2022-11-07T10:12:56.496Z,985.45
2022-11-07T10:13:56.482Z,985.46
2022-11-07T10:14:56.446Z,985.51
2022-11-07T10:15:56.439Z,985.54
2022-11-07T10:16:56.450Z,985.53
2022-11-07T10:17:56.437Z,985.53
2022-11-07T10:18:56.421Z,985.49
2022-11-07T10:19:56.429Z,985.50
2022-11-07T10:21:16.088Z,985.50
2022-11-07T10:21:57.370Z,985.47
2022-11-07T10:22:56.399Z,985.51
2022-11-07T10:23:56.371Z,985.46
2022-11-07T10:24:56.391Z,985.52
2022-11-07T10:25:56.351Z,985.52
2022-11-07T10:26:56.331Z,985.57
2022-11-07T10:27:56.311Z,985.54
2022-11-07T10:28:56.291Z,985.49
2022-11-07T10:29:56.331Z,985.49
2022-11-07T10:30:56.281Z,985.42
2022-11-07T10:31:56.297Z,985.45
2022-11-07T10:32:56.262Z,985.36
2022-11-07T10:33:56.241Z,985.36
2022-11-07T10:34:56.251Z,985.36
2022-11-07T10:35:56.252Z,985.39
2022-11-07T10:36:56.212Z,985.41
2022-11-07T10:37:56.222Z,985.33
2022-11-07T10:38:56.211Z,985.35
2022-11-07T10:39:56.214Z,985.39
2022-11-07T10:40:56.188Z,985.36
2022-11-07T10:41:56.155Z,985.34
2022-11-07T10:42:56.135Z,985.36
2022-11-07T10:43:56.158Z,985.30
2022-11-07T10:44:56.145Z,985.25
2022-11-07T10:45:56.124Z,985.20
2022-11-07T10:46:56.096Z,985.21
2022-11-07T10:47:56.168Z,985.16
2022-11-07T10:48:56.074Z,985.14
2022-11-07T10:49:56.086Z,985.15
2022-11-07T10:50:56.087Z,985.18
2022-11-07T10:51:56.044Z,985.18
2022-11-07T10:52:56.042Z,985.15
2022-11-07T10:53:56.046Z,985.14
2022-11-07T10:54:56.008Z,985.10
2022-11-07T10:55:56.012Z,985.07
2022-11-07T10:56:56.006Z,985.07
2022-11-07T10:57:55.999Z,985.07
2022-11-07T10:58:55.988Z,985.03
2022-11-07T10:59:56.688Z,985.01
2022-11-07T11:00:56.033Z,984.97
2022-11-07T11:01:56.772Z,984.98
2022-11-07T11:02:55.939Z,984.96
2022-11-07T11:03:56.031Z,984.99
2022-11-07T11:04:55.931Z,985.02
2022-11-07T11:05:56.630Z,985.03
2022-11-07T11:06:55.939Z,985.05
2022-11-07T11:07:56.911Z,985.05
2022-11-07T11:08:55.971Z,985.07
2022-11-07T11:09:55.863Z,985.07
2022-11-07T11:10:55.858Z,984.99
2022-11-07T11:11:55.843Z,985.04
2022-11-07T11:12:55.821Z,985.02
2022-11-07T11:13:55.832Z,985.07
2022-11-07T11:14:55.797Z,985.07
2022-11-07T11:15:55.814Z,984.91
2022-11-07T11:16:55.817Z,984.97
2022-11-07T11:17:55.763Z,985.00
2022-11-07T11:18:55.774Z,985.03
2022-11-07T11:19:55.744Z,985.01
2022-11-07T11:20:55.763Z,985.06
2022-11-07T11:21:55.746Z,985.06
2022-11-07T11:22:55.726Z,984.96
2022-11-07T11:23:55.706Z,985.00
2022-11-07T11:24:55.695Z,985.07
2022-11-07T11:25:55.697Z,985.07
2022-11-07T11:26:55.701Z,985.15
2022-11-07T11:27:55.667Z,985.10
2022-11-07T11:28:55.656Z,985.10
2022-11-07T11:29:55.636Z,985.08
2022-11-07T11:30:55.647Z,985.13
2022-11-07T11:31:55.627Z,985.16
2022-11-07T11:32:55.617Z,985.14
2022-11-07T11:33:55.609Z,985.11
2022-11-07T11:34:55.581Z,985.12
2022-11-07T11:35:55.588Z,985.10
2022-11-07T11:36:55.560Z,985.03
2022-11-07T11:37:55.549Z,985.04
2022-11-07T11:38:55.540Z,985.02
2022-11-07T11:39:55.540Z,984.95
2022-11-07T11:41:03.394Z,984.97
2022-11-07T11:41:56.500Z,985.17
2022-11-07T11:42:55.520Z,985.04
2022-11-07T11:43:55.481Z,985.03
2022-11-07T11:44:55.470Z,985.13
2022-11-07T11:45:55.473Z,985.07
2022-11-07T11:46:55.582Z,985.14
2022-11-07T11:47:55.468Z,985.10
2022-11-07T11:48:55.452Z,985.02
2022-11-07T11:49:55.442Z,985.09
2022-11-07T11:50:55.444Z,985.05
2022-11-07T11:51:55.410Z,985.12
2022-11-07T11:52:55.402Z,985.09
2022-11-07T11:53:55.579Z,985.11
2022-11-07T11:54:55.374Z,985.19
2022-11-07T11:55:55.364Z,985.16
2022-11-07T11:56:55.381Z,985.11
2022-11-07T11:57:55.325Z,985.02
2022-11-07T11:58:55.321Z,984.99
2022-11-07T11:59:55.396Z,984.99
2022-11-07T12:00:55.315Z,985.03
2022-11-07T12:01:55.408Z,985.01
2022-11-07T12:02:55.284Z,985.01
2022-11-07T12:03:55.517Z,985.02
2022-11-07T12:04:55.266Z,985.02
2022-11-07T12:05:55.277Z,984.97
2022-11-07T12:06:55.248Z,985.12
2022-11-07T12:07:55.216Z,984.95
2022-11-07T12:08:55.245Z,985.05
2022-11-07T12:09:55.207Z,984.90
2022-11-07T12:10:55.213Z,984.86
2022-11-07T12:11:55.177Z,984.91
2022-11-07T12:12:55.169Z,984.96
2022-11-07T12:13:55.198Z,984.95
2022-11-07T12:14:57.865Z,984.92
2022-11-07T12:15:55.162Z,984.88
2022-11-07T12:16:55.119Z,984.90
2022-11-07T12:17:55.118Z,984.90
2022-11-07T12:18:55.109Z,984.87
2022-11-07T12:19:55.100Z,984.90
2022-11-07T12:20:55.099Z,984.82
2022-11-07T12:21:55.060Z,984.81
2022-11-07T12:22:55.052Z,984.71
2022-11-07T12:23:55.051Z,984.93
2022-11-07T12:24:55.064Z,984.76
2022-11-07T12:25:55.301Z,984.76
2022-11-07T12:26:57.852Z,984.72
2022-11-07T12:27:55.012Z,984.73
2022-11-07T12:28:55.002Z,984.73